Time;durP1;ratioP1;P1;durP2;ratioP2;P2;SDS_P1;SDS_P2;PMS_P1;PMS_P2;Temp;Humidity;BMP_temperature;BMP_pressure;BME280_temperature;BME280_humidity;BME280_pressure;Samples;Min_cycle;Max_cycle;Signal;HPM_P1;HPM_P2
2023/06/24 00:01:42;;;;;;;;;;;26.30;46.10;;;;;;20921837;28;20401;-56
2023/06/24 00:11:42;;;;;;;;;;;26.20;46.30;;;;;;20921182;28;19932;-59
2023/06/24 00:21:43;;;;;;;;;;;26.00;46.80;;;;;;20919806;28;19925;-57
2023/06/24 00:31:44;;;;;;;;;;;26.00;47.10;;;;;;20919678;28;19932;-57
2023/06/24 00:41:44;;;;;;;;;;;25.70;47.70;;;;;;20918350;28;19995;-57
2023/06/24 00:51:50;;;;;;;;;;;25.60;48.40;;;;;;20917429;28;19925;-57
2023/06/24 01:01:52;;;;;;;;;;;25.40;48.80;;;;;;20917651;28;19925;-56
2023/06/24 01:11:53;;;;;;;;;;;25.20;49.20;;;;;;20915942;28;19932;-56
2023/06/24 01:22:23;;;;;;;;;;;25.00;49.80;;;;;;20915133;28;20075;-58
2023/06/24 01:32:29;;;;;;;;;;;24.80;50.20;;;;;;20877221;28;19995;-55
2023/06/24 01:42:30;;;;;;;;;;;24.70;50.60;;;;;;20914337;28;20335;-55
2023/06/24 01:52:32;;;;;;;;;;;24.70;50.90;;;;;;20912843;28;19925;-57
2023/06/24 02:02:33;;;;;;;;;;;24.60;51.20;;;;;;20913832;28;19929;-57
2023/06/24 02:12:34;;;;;;;;;;;24.60;51.20;;;;;;20913777;28;19928;-57
2023/06/24 02:22:37;;;;;;;;;;;24.60;51.10;;;;;;20912759;28;20271;-57
2023/06/24 02:32:38;;;;;;;;;;;24.50;50.70;;;;;;20912958;28;20393;-55
2023/06/24 02:42:38;;;;;;;;;;;24.60;50.60;;;;;;20912330;28;19925;-57
2023/06/24 02:52:39;;;;;;;;;;;24.60;50.30;;;;;;20912260;28;19925;-55
2023/06/24 03:02:42;;;;;;;;;;;24.60;50.40;;;;;;20923010;28;20298;-56
2023/06/24 03:12:43;;;;;;;;;;;24.60;50.30;;;;;;20925753;28;19928;-55
2023/06/24 03:22:43;;;;;;;;;;;24.60;50.20;;;;;;20924528;28;19996;-56
2023/06/24 03:32:46;;;;;;;;;;;24.60;50.30;;;;;;20923932;28;19925;-56
2023/06/24 03:42:47;;;;;;;;;;;24.60;50.60;;;;;;20923148;28;19925;-55
2023/06/24 03:52:47;;;;;;;;;;;24.60;50.70;;;;;;20922443;28;19931;-56
2023/06/24 04:02:48;;;;;;;;;;;24.50;51.00;;;;;;20921858;28;19978;-55
2023/06/24 04:12:49;;;;;;;;;;;24.40;51.50;;;;;;20920516;28;19931;-55
2023/06/24 04:22:49;;;;;;;;;;;24.30;51.60;;;;;;20918544;28;20027;-56
2023/06/24 04:32:50;;;;;;;;;;;24.20;51.80;;;;;;20918134;28;19973;-56
2023/06/24 04:42:50;;;;;;;;;;;24.20;52.00;;;;;;20918639;28;20386;-56
2023/06/24 04:52:56;;;;;;;;;;;24.10;52.50;;;;;;20916650;28;19932;-56
2023/06/24 05:02:57;;;;;;;;;;;23.90;53.10;;;;;;20917013;28;19951;-56
2023/06/24 05:12:57;;;;;;;;;;;23.80;53.50;;;;;;20915135;28;19976;-57
2023/06/24 05:22:58;;;;;;;;;;;23.70;53.90;;;;;;20915934;28;20254;-56
2023/06/24 05:32:58;;;;;;;;;;;23.60;54.20;;;;;;20915639;28;20385;-56
2023/06/24 05:43:00;;;;;;;;;;;23.60;54.40;;;;;;20914734;28;19925;-57
2023/06/24 05:53:01;;;;;;;;;;;23.50;54.80;;;;;;20913911;28;19925;-56
2023/06/24 06:03:01;;;;;;;;;;;23.50;54.80;;;;;;20913475;28;20413;-56
2023/06/24 06:13:02;;;;;;;;;;;23.60;54.80;;;;;;20911919;28;19925;-56
2023/06/24 06:23:03;;;;;;;;;;;23.70;54.60;;;;;;20912305;28;20298;-56
2023/06/24 06:33:03;;;;;;;;;;;24.00;53.80;;;;;;20916925;28;19932;-56
2023/06/24 06:43:04;;;;;;;;;;;24.30;52.50;;;;;;20927909;28;20344;-56
2023/06/24 06:53:04;;;;;;;;;;;24.50;52.20;;;;;;20927006;28;19983;-57
2023/06/24 07:03:05;;;;;;;;;;;24.90;51.30;;;;;;20926642;28;20306;-55
2023/06/24 07:13:06;;;;;;;;;;;25.60;50.00;;;;;;20925379;28;19932;-55
2023/06/24 07:23:06;;;;;;;;;;;26.20;48.30;;;;;;20923788;28;20003;-56
2023/06/24 07:33:07;;;;;;;;;;;26.90;47.20;;;;;;20923541;28;19925;-57
2023/06/24 07:43:08;;;;;;;;;;;27.30;46.20;;;;;;20920248;28;20047;-55
2023/06/24 07:53:08;;;;;;;;;;;27.80;45.40;;;;;;20921403;28;20366;-57
2023/06/24 08:03:09;;;;;;;;;;;28.20;44.40;;;;;;20920447;28;19982;-57
2023/06/24 08:13:10;;;;;;;;;;;28.40;43.90;;;;;;20919954;28;20401;-56
2023/06/24 08:23:10;;;;;;;;;;;28.60;43.60;;;;;;20919002;28;19948;-56
2023/06/24 08:33:11;;;;;;;;;;;28.90;42.60;;;;;;20919246;28;19925;-55
2023/06/24 08:43:12;;;;;;;;;;;29.10;42.00;;;;;;20917964;28;19925;-56
2023/06/24 08:53:13;;;;;;;;;;;29.30;41.70;;;;;;20916733;28;20031;-56
2023/06/24 09:03:14;;;;;;;;;;;29.50;40.90;;;;;;20916547;28;20420;-55
2023/06/24 09:13:15;;;;;;;;;;;29.70;40.50;;;;;;20914465;28;19925;-56
2023/06/24 09:23:16;;;;;;;;;;;30.00;40.00;;;;;;20914015;28;20386;-58
2023/06/24 09:33:21;;;;;;;;;;;30.10;39.20;;;;;;20915248;28;19931;-55
2023/06/24 09:43:21;;;;;;;;;;;30.20;37.80;;;;;;20914741;28;20007;-57
2023/06/24 09:53:22;;;;;;;;;;;30.40;37.60;;;;;;20913107;28;19964;-57
2023/06/24 10:03:23;;;;;;;;;;;30.70;37.10;;;;;;20912934;28;19929;-55
2023/06/24 10:13:25;;;;;;;;;;;30.80;36.80;;;;;;20926502;28;19931;-58
2023/06/24 10:23:33;;;;;;;;;;;31.10;35.70;;;;;;20927881;28;19925;-56
2023/06/24 10:33:38;;;;;;;;;;;31.10;42.10;;;;;;20927788;28;19924;-55
2023/06/24 10:43:38;;;;;;;;;;;31.20;36.00;;;;;;20926025;28;19925;-56
2023/06/24 10:53:39;;;;;;;;;;;31.50;35.60;;;;;;20927319;28;20462;-55
2023/06/24 11:03:40;;;;;;;;;;;31.60;35.40;;;;;;20925762;28;19932;-56
2023/06/24 11:13:41;;;;;;;;;;;31.70;34.60;;;;;;20924945;28;19932;-57
2023/06/24 11:23:41;;;;;;;;;;;31.60;34.60;;;;;;20923885;28;19925;-59
2023/06/24 11:33:42;;;;;;;;;;;32.10;33.30;;;;;;20922559;28;19925;-55
2023/06/24 11:43:46;;;;;;;;;;;32.10;32.10;;;;;;20921552;28;20006;-54
2023/06/24 11:53:47;;;;;;;;;;;32.20;32.50;;;;;;20921994;28;19924;-56
2023/06/24 12:03:47;;;;;;;;;;;32.30;32.90;;;;;;20920397;28;20369;-56
2023/06/24 12:13:48;;;;;;;;;;;32.30;32.70;;;;;;20920535;28;19925;-55
2023/06/24 12:23:49;;;;;;;;;;;32.40;32.50;;;;;;20918878;28;20025;-55
2023/06/24 12:33:50;;;;;;;;;;;32.10;32.60;;;;;;20915565;28;19925;-55
2023/06/24 12:43:51;;;;;;;;;;;32.10;33.00;;;;;;20917028;28;20007;-55
2023/06/24 12:53:51;;;;;;;;;;;32.10;33.10;;;;;;20916635;28;19968;-56
2023/06/24 13:03:52;;;;;;;;;;;32.70;31.30;;;;;;20916189;28;20393;-55
2023/06/24 13:13:52;;;;;;;;;;;32.60;31.30;;;;;;20915643;28;19983;-55
2023/06/24 13:23:53;;;;;;;;;;;32.70;31.10;;;;;;20914912;28;20467;-55
2023/06/24 13:33:53;;;;;;;;;;;32.60;30.60;;;;;;20914368;28;20441;-56
2023/06/24 13:43:55;;;;;;;;;;;32.60;30.00;;;;;;20913241;28;19928;-55
2023/06/24 13:53:55;;;;;;;;;;;32.60;29.80;;;;;;20912567;28;20015;-55
2023/06/24 14:03:56;;;;;;;;;;;33.00;29.20;;;;;;20913127;28;20412;-56
2023/06/24 14:13:57;;;;;;;;;;;33.20;29.00;;;;;;20912447;28;19946;-56
2023/06/24 14:23:58;;;;;;;;;;;33.30;28.80;;;;;;20911497;28;19932;-54
2023/06/24 14:33:58;;;;;;;;;;;33.40;28.40;;;;;;20910053;28;19932;-56
2023/06/24 14:43:59;;;;;;;;;;;33.20;29.20;;;;;;20910115;28;20376;-55
2023/06/24 14:54:00;;;;;;;;;;;33.30;29.40;;;;;;20913941;28;19929;-56
2023/06/24 15:04:00;;;;;;;;;;;33.20;29.20;;;;;;20924363;28;20092;-57
2023/06/24 15:14:01;;;;;;;;;;;33.50;27.90;;;;;;20922427;28;19925;-55
2023/06/24 15:24:01;;;;;;;;;;;33.50;27.90;;;;;;20922856;28;19986;-55
2023/06/24 15:34:02;;;;;;;;;;;33.30;28.40;;;;;;20922544;28;19932;-55
2023/06/24 15:44:06;;;;;;;;;;;33.40;28.20;;;;;;20922004;28;19925;-55
2023/06/24 15:54:07;;;;;;;;;;;33.80;27.70;;;;;;20921453;28;19925;-55
2023/06/24 16:04:08;;;;;;;;;;;33.90;27.10;;;;;;20919275;28;20012;-56
2023/06/24 16:14:09;;;;;;;;;;;33.80;27.30;;;;;;20919434;28;20460;-55
2023/06/24 16:24:11;;;;;;;;;;;34.00;26.30;;;;;;20919522;28;19925;-61
2023/06/24 16:34:12;;;;;;;;;;;33.90;26.70;;;;;;20919018;28;20400;-58
2023/06/24 16:44:12;;;;;;;;;;;33.90;26.90;;;;;;20916120;28;20020;-61
2023/06/24 16:54:13;;;;;;;;;;;34.00;26.90;;;;;;20917132;28;19963;-59
2023/06/24 17:04:14;;;;;;;;;;;34.00;26.70;;;;;;20917069;28;19976;-58
2023/06/24 17:14:14;;;;;;;;;;;34.00;26.80;;;;;;20916072;28;19968;-57
2023/06/24 17:24:15;;;;;;;;;;;33.90;27.10;;;;;;20915966;28;19975;-59
2023/06/24 17:34:16;;;;;;;;;;;33.90;27.10;;;;;;20914987;28;20054;-57
2023/06/24 17:44:16;;;;;;;;;;;34.10;26.70;;;;;;20913308;28;20013;-57
2023/06/24 17:54:17;;;;;;;;;;;34.00;27.10;;;;;;20912704;28;19925;-56
2023/06/24 18:04:17;;;;;;;;;;;34.00;27.00;;;;;;20912371;28;19925;-56
2023/06/24 18:14:18;;;;;;;;;;;33.90;27.20;;;;;;20911792;28;20393;-58
2023/06/24 18:24:19;;;;;;;;;;;33.70;27.60;;;;;;20910813;28;19924;-56
2023/06/24 18:34:19;;;;;;;;;;;33.70;27.70;;;;;;20924399;28;19968;-56
2023/06/24 18:44:20;;;;;;;;;;;33.80;27.10;;;;;;20926776;28;19925;-57
2023/06/24 18:54:21;;;;;;;;;;;33.60;27.80;;;;;;20924853;28;19925;-57
2023/06/24 19:04:21;;;;;;;;;;;33.40;28.20;;;;;;20925310;28;20400;-56
2023/06/24 19:14:22;;;;;;;;;;;33.20;28.90;;;;;;20924964;28;19978;-57
2023/06/24 19:24:23;;;;;;;;;;;33.10;29.10;;;;;;20924505;28;19925;-57
2023/06/24 19:34:23;;;;;;;;;;;32.90;29.30;;;;;;20921781;28;19931;-56
2023/06/24 19:44:24;;;;;;;;;;;32.70;29.60;;;;;;20920461;28;19972;-58
2023/06/24 19:54:24;;;;;;;;;;;32.60;29.80;;;;;;20916472;28;19925;-58
2023/06/24 20:04:25;;;;;;;;;;;32.40;30.10;;;;;;20913199;28;20062;-58
2023/06/24 20:14:25;;;;;;;;;;;32.30;30.20;;;;;;20913931;28;19932;-59
2023/06/24 20:24:26;;;;;;;;;;;32.10;30.60;;;;;;20920043;28;19931;-61
2023/06/24 20:34:27;;;;;;;;;;;31.80;31.00;;;;;;20919817;28;19929;-60
2023/06/24 20:44:27;;;;;;;;;;;31.60;31.70;;;;;;20917779;28;19977;-60
2023/06/24 20:54:31;;;;;;;;;;;31.40;31.90;;;;;;20916797;28;20343;-60
2023/06/24 21:04:31;;;;;;;;;;;31.30;32.30;;;;;;20916623;28;19925;-60
2023/06/24 21:14:32;;;;;;;;;;;31.10;32.60;;;;;;20915661;28;19924;-59
2023/06/24 21:24:33;;;;;;;;;;;30.90;33.20;;;;;;20914676;28;19925;-59
2023/06/24 21:34:33;;;;;;;;;;;30.60;33.70;;;;;;20914850;28;19925;-60
2023/06/24 21:44:34;;;;;;;;;;;30.60;33.50;;;;;;20914445;28;19980;-59
2023/06/24 21:54:35;;;;;;;;;;;30.50;33.70;;;;;;20904194;28;19967;-65
2023/06/24 22:04:35;;;;;;;;;;;30.10;35.30;;;;;;20911751;28;19945;-65
2023/06/24 22:14:36;;;;;;;;;;;29.90;35.80;;;;;;20912283;28;19925;-66
2023/06/24 22:24:36;;;;;;;;;;;29.70;35.40;;;;;;20913147;28;20451;-66
2023/06/24 22:34:37;;;;;;;;;;;29.60;35.30;;;;;;20912585;28;19984;-66
2023/06/24 22:44:38;;;;;;;;;;;29.50;35.40;;;;;;20912168;28;19932;-65
2023/06/24 22:54:38;;;;;;;;;;;29.60;36.30;;;;;;20911951;28;19925;-65
2023/06/24 23:04:39;;;;;;;;;;;29.60;36.70;;;;;;20911526;28;19925;-64
2023/06/24 23:14:40;;;;;;;;;;;29.40;37.90;;;;;;20915296;28;19932;-64
2023/06/24 23:24:44;;;;;;;;;;;29.10;39.20;;;;;;20925502;28;19925;-64
2023/06/24 23:34:46;;;;;;;;;;;28.80;39.70;;;;;;20923747;28;19966;-65
2023/06/24 23:44:46;;;;;;;;;;;28.60;39.90;;;;;;20923905;28;20394;-65
2023/06/24 23:54:47;;;;;;;;;;;28.40;40.70;;;;;;20923146;28;19994;-65
